Time;durP1;ratioP1;P1;durP2;ratioP2;P2;SDS_P1;SDS_P2;PMS_P1;PMS_P2;Temp;Humidity;BMP_temperature;BMP_pressure;BME280_temperature;BME280_humidity;BME280_pressure;Samples;Min_cycle;Max_cycle;Signal;HPM_P1;HPM_P2
2023/03/01 00:01:37;;;;;;;;;;;;;;;9.06;93.97;95574.22;5033812;28;1001;-54
2023/03/01 00:04:03;;;;;;;;;;;;;;;9.11;93.02;95574.66;5034026;28;1048;-54
2023/03/01 00:06:29;;;;;;;;;;;;;;;9.14;92.65;95570.84;5033728;28;1101;-54
2023/03/01 00:08:55;;;;;;;;;;;;;;;9.11;93.00;95561.31;5033601;28;1906;-54
2023/03/01 00:11:26;;;;;;;;;;;;;;;9.13;92.96;95572.69;5033768;28;982;-54
2023/03/01 00:13:53;;;;;;;;;;;;;;;9.14;93.02;95563.72;5032998;28;1046;-54
2023/03/01 00:16:21;;;;;;;;;;;;;;;9.28;92.21;95561.59;5033552;28;1105;-54
2023/03/01 00:18:47;;;;;;;;;;;;;;;9.26;92.04;95553.72;5033588;28;1116;-54
2023/03/01 00:21:14;;;;;;;;;;;;;;;9.17;92.73;95558.06;5033768;28;970;-54
2023/03/01 00:23:40;;;;;;;;;;;;;;;9.19;92.75;95545.44;5033553;28;1595;-54
2023/03/01 00:26:07;;;;;;;;;;;;;;;9.32;91.98;95555.81;5033590;28;1041;-54
2023/03/01 00:28:33;;;;;;;;;;;;;;;9.36;91.47;95554.53;5033420;28;1987;-54
2023/03/01 00:31:03;;;;;;;;;;;;;;;9.35;91.13;95552.88;5033265;28;1070;-54
2023/03/01 00:33:29;;;;;;;;;;;;;;;9.28;91.49;95551.75;5033638;28;970;-54
2023/03/01 00:35:57;;;;;;;;;;;;;;;9.33;90.98;95557.50;5033536;28;970;-54
2023/03/01 00:38:23;;;;;;;;;;;;;;;9.37;89.94;95558.03;5033527;28;1005;-54
2023/03/01 00:40:49;;;;;;;;;;;;;;;9.43;88.97;95562.81;5033359;28;934;-54
2023/03/01 00:43:15;;;;;;;;;;;;;;;9.40;88.47;95564.94;5033351;28;1177;-54
2023/03/01 00:45:41;;;;;;;;;;;;;;;9.34;89.71;95563.69;5033391;28;1058;-53
2023/03/01 00:48:07;;;;;;;;;;;;;;;9.36;89.18;95567.88;5033465;28;1938;-54
2023/03/01 00:50:33;;;;;;;;;;;;;;;9.41;89.03;95559.47;5033234;28;1117;-54
2023/03/01 00:52:59;;;;;;;;;;;;;;;9.44;88.05;95561.81;5033374;28;1055;-54
2023/03/01 00:55:26;;;;;;;;;;;;;;;9.24;90.24;95570.84;5033307;28;978;-54
2023/03/01 00:57:52;;;;;;;;;;;;;;;9.07;91.24;95559.91;5033237;28;1039;-54
2023/03/01 01:00:18;;;;;;;;;;;;;;;8.93;91.91;95552.34;5033219;28;1034;-54
2023/03/01 01:02:44;;;;;;;;;;;;;;;8.92;92.46;95558.66;5033435;28;985;-54
2023/03/01 01:05:10;;;;;;;;;;;;;;;9.01;91.41;95555.16;5033318;28;1035;-54
2023/03/01 01:07:36;;;;;;;;;;;;;;;9.09;91.20;95557.13;5033291;28;1093;-54
2023/03/01 01:10:02;;;;;;;;;;;;;;;8.82;92.06;95542.69;5033182;28;1993;-54
2023/03/01 01:12:28;;;;;;;;;;;;;;;8.74;92.46;95540.69;5033155;28;1049;-54
2023/03/01 01:14:54;;;;;;;;;;;;;;;8.68;93.03;95540.41;5033103;28;989;-54
2023/03/01 01:17:20;;;;;;;;;;;;;;;8.82;92.91;95537.34;5033028;28;1062;-54
2023/03/01 01:19:46;;;;;;;;;;;;;;;8.92;92.50;95535.50;5033225;28;1065;-54
2023/03/01 01:22:12;;;;;;;;;;;;;;;8.96;92.68;95536.91;5033355;28;1045;-54
2023/03/01 01:24:38;;;;;;;;;;;;;;;8.99;92.06;95525.97;5034209;28;1276;-54
2023/03/01 01:27:05;;;;;;;;;;;;;;;9.03;92.39;95529.19;5036687;28;1125;-54
2023/03/01 01:29:31;;;;;;;;;;;;;;;9.04;91.58;95520.19;5036588;28;1917;-54
2023/03/01 01:31:57;;;;;;;;;;;;;;;9.06;91.68;95518.22;5036560;28;1340;-54
2023/03/01 01:34:23;;;;;;;;;;;;;;;9.07;92.34;95517.25;5036718;28;1014;-54
2023/03/01 01:36:55;;;;;;;;;;;;;;;9.06;92.61;95509.38;5036549;28;1105;-54
2023/03/01 01:39:22;;;;;;;;;;;;;;;8.90;92.98;95515.31;5036572;28;1048;-54
2023/03/01 01:41:48;;;;;;;;;;;;;;;8.81;93.43;95514.31;5018976;28;978;-54
2023/03/01 01:44:25;;;;;;;;;;;;;;;8.71;93.55;95502.84;5036404;28;1136;-54
2023/03/01 01:47:01;;;;;;;;;;;;;;;8.60;94.01;95503.81;5036591;28;1041;-54
2023/03/01 01:49:35;;;;;;;;;;;;;;;8.56;95.01;95505.06;5036234;28;1993;-54
2023/03/01 01:52:17;;;;;;;;;;;;;;;8.59;95.43;95507.44;5036275;28;1190;-54
2023/03/01 01:55:03;;;;;;;;;;;;;;;8.57;94.70;95504.06;5036313;28;1046;-54
2023/03/01 01:57:33;;;;;;;;;;;;;;;8.58;93.87;95511.09;5036149;28;1506;-54
2023/03/01 02:00:02;;;;;;;;;;;;;;;8.64;93.58;95502.53;5036137;28;1073;-54
2023/03/01 02:02:28;;;;;;;;;;;;;;;8.71;93.88;95500.16;5036197;28;1013;-54
2023/03/01 02:05:03;;;;;;;;;;;;;;;8.76;93.71;95496.09;5036007;28;1983;-54
2023/03/01 02:07:30;;;;;;;;;;;;;;;8.86;93.08;95492.56;5036022;28;1165;-54
2023/03/01 02:09:56;;;;;;;;;;;;;;;8.91;92.73;95498.31;5036050;28;1914;-54
2023/03/01 02:12:24;;;;;;;;;;;;;;;8.99;92.55;95495.75;5036015;28;1045;-54
2023/03/01 02:14:50;;;;;;;;;;;;;;;8.99;92.92;95493.09;5035917;28;1113;-54
2023/03/01 02:17:18;;;;;;;;;;;;;;;9.05;92.56;95492.53;5035785;28;918;-54
2023/03/01 02:19:44;;;;;;;;;;;;;;;9.01;92.93;95490.28;5036046;28;1206;-54
2023/03/01 02:22:20;;;;;;;;;;;;;;;9.09;92.46;95490.44;5035950;28;986;-54
2023/03/01 02:24:49;;;;;;;;;;;;;;;9.06;92.44;95486.22;5035678;28;1046;-54
2023/03/01 02:27:16;;;;;;;;;;;;;;;9.06;92.58;95486.22;5035695;28;1045;-54
2023/03/01 02:29:43;;;;;;;;;;;;;;;9.07;92.68;95492.38;5035556;28;1906;-54
2023/03/01 02:32:11;;;;;;;;;;;;;;;9.06;93.25;95483.53;5035396;28;1082;-54
2023/03/01 02:34:38;;;;;;;;;;;;;;;9.09;93.05;95488.59;5035689;28;1028;-54
2023/03/01 02:37:08;;;;;;;;;;;;;;;9.15;92.10;95482.69;5034860;28;958;-54
2023/03/01 02:39:41;;;;;;;;;;;;;;;9.12;92.16;95485.63;5035581;28;958;-54
2023/03/01 02:42:10;;;;;;;;;;;;;;;9.07;92.50;95485.25;5035367;28;1045;-54
2023/03/01 02:44:36;;;;;;;;;;;;;;;9.04;92.78;95488.19;5035248;28;922;-54
2023/03/01 02:47:03;;;;;;;;;;;;;;;9.01;92.90;95477.81;5035504;28;1040;-54
2023/03/01 02:49:34;;;;;;;;;;;;;;;9.04;92.55;95488.19;5035145;28;1914;-54
2023/03/01 02:52:19;;;;;;;;;;;;;;;9.04;92.78;95492.69;5035264;28;1024;-54
2023/03/01 02:54:51;;;;;;;;;;;;;;;9.11;91.90;95491.13;5035075;28;1953;-54
2023/03/01 02:57:17;;;;;;;;;;;;;;;9.06;92.21;95496.03;5035042;28;1033;-54
2023/03/01 02:59:44;;;;;;;;;;;;;;;8.95;93.12;95499.69;5035229;28;958;-54
2023/03/01 03:02:38;;;;;;;;;;;;;;;8.95;93.75;95505.03;5034907;28;1058;-54
2023/03/01 03:05:12;;;;;;;;;;;;;;;8.89;94.46;95495.78;5034984;28;970;-54
2023/03/01 03:07:40;;;;;;;;;;;;;;;8.79;95.30;95497.63;5034778;28;1025;-53
2023/03/01 03:10:07;;;;;;;;;;;;;;;8.75;95.75;95499.72;5034696;28;1988;-54
2023/03/01 03:12:33;;;;;;;;;;;;;;;8.67;96.12;95502.28;5034742;28;1101;-54
2023/03/01 03:14:59;;;;;;;;;;;;;;;8.71;96.15;95506.34;5034828;28;1021;-54
2023/03/01 03:17:25;;;;;;;;;;;;;;;8.65;96.69;95504.22;5034650;28;1078;-54
2023/03/01 03:19:51;;;;;;;;;;;;;;;8.67;96.16;95506.72;5034671;28;1021;-54
2023/03/01 03:22:17;;;;;;;;;;;;;;;8.66;96.54;95505.06;5034557;28;1896;-54
2023/03/01 03:24:43;;;;;;;;;;;;;;;8.62;96.89;95509.84;5034487;28;1883;-54
2023/03/01 03:27:09;;;;;;;;;;;;;;;8.68;96.57;95506.59;5034685;28;1029;-54
2023/03/01 03:29:35;;;;;;;;;;;;;;;8.72;96.14;95508.00;5034355;28;1991;-54
2023/03/01 03:32:02;;;;;;;;;;;;;;;8.76;95.14;95506.75;5034254;28;1181;-54
2023/03/01 03:34:29;;;;;;;;;;;;;;;8.89;93.72;95503.78;5016885;28;1054;-54
2023/03/01 03:36:59;;;;;;;;;;;;;;;8.82;94.21;95509.81;5034226;28;1193;-54
2023/03/01 03:39:26;;;;;;;;;;;;;;;8.79;94.83;95509.13;5034223;28;1113;-54
2023/03/01 03:41:53;;;;;;;;;;;;;;;8.85;94.50;95510.38;5034331;28;977;-54
2023/03/01 03:44:19;;;;;;;;;;;;;;;8.84;94.86;95508.72;5034271;28;1117;-54
2023/03/01 03:46:45;;;;;;;;;;;;;;;8.91;93.76;95503.63;5034177;28;980;-54
2023/03/01 03:49:11;;;;;;;;;;;;;;;8.91;93.32;95509.81;5034016;28;2016;-54
2023/03/01 03:51:37;;;;;;;;;;;;;;;8.89;93.33;95516.28;5033980;28;977;-54
2023/03/01 03:54:03;;;;;;;;;;;;;;;8.89;93.27;95513.63;5033933;28;1207;-55
2023/03/01 03:56:29;;;;;;;;;;;;;;;8.89;93.48;95509.09;5034140;28;1125;-54
2023/03/01 03:58:55;;;;;;;;;;;;;;;8.91;93.39;95509.81;5033883;28;1108;-53
2023/03/01 04:01:21;;;;;;;;;;;;;;;8.92;93.67;95511.50;5033946;28;1065;-54
2023/03/01 04:03:47;;;;;;;;;;;;;;;8.95;91.97;95505.91;5033924;28;1041;-54
2023/03/01 04:06:14;;;;;;;;;;;;;;;8.86;92.98;95511.22;5033811;28;1241;-54
2023/03/01 04:08:40;;;;;;;;;;;;;;;8.80;93.42;95507.28;5033891;28;1999;-54
2023/03/01 04:13:52;;;;;;;;;;;;;;;8.67;93.89;95517.41;5033803;28;966;-54
2023/03/01 04:16:18;;;;;;;;;;;;;;;8.62;93.20;95515.16;5033684;28;1057;-53
2023/03/01 04:18:45;;;;;;;;;;;;;;;8.62;92.06;95517.00;5033655;28;978;-54
2023/03/01 04:21:11;;;;;;;;;;;;;;;8.56;93.40;95513.06;5033805;28;997;-54
2023/03/01 04:23:37;;;;;;;;;;;;;;;8.61;92.79;95518.81;5033724;28;1017;-54
2023/03/01 04:26:03;;;;;;;;;;;;;;;8.58;91.81;95513.78;5033679;28;994;-53
2023/03/01 04:28:34;;;;;;;;;;;;;;;8.56;92.26;95510.41;5033550;28;1997;-53
2023/03/01 04:31:12;;;;;;;;;;;;;;;8.50;92.89;95510.94;5033384;28;1363;-53
2023/03/01 04:33:42;;;;;;;;;;;;;;;8.52;92.92;95511.66;5033744;28;1080;-53
2023/03/01 04:36:09;;;;;;;;;;;;;;;8.55;91.64;95520.19;5016151;28;993;-53
2023/03/01 04:38:37;;;;;;;;;;;;;;;8.56;91.71;95516.56;5015984;28;1041;-53
2023/03/01 04:41:06;;;;;;;;;;;;;;;8.58;92.16;95519.09;5033445;28;1264;-53
2023/03/01 04:43:33;;;;;;;;;;;;;;;8.54;91.25;95517.69;5033394;28;974;-53
2023/03/01 04:46:02;;;;;;;;;;;;;;;8.58;90.90;95524.44;5033290;28;1010;-53
2023/03/01 04:48:28;;;;;;;;;;;;;;;8.59;90.28;95521.63;5033247;28;1918;-53
2023/03/01 04:50:54;;;;;;;;;;;;;;;8.59;90.52;95526.09;5033268;28;1030;-53
2023/03/01 04:53:20;;;;;;;;;;;;;;;8.60;89.81;95514.47;5033426;28;1040;-53
2023/03/01 04:55:46;;;;;;;;;;;;;;;8.51;90.33;95516.13;5033224;28;1078;-53
2023/03/01 04:58:12;;;;;;;;;;;;;;;8.50;89.85;95516.28;5033268;28;1055;-53
2023/03/01 05:00:38;;;;;;;;;;;;;;;8.47;90.46;95521.91;5035904;28;1113;-53
2023/03/01 05:03:04;;;;;;;;;;;;;;;8.44;90.22;95517.66;5037381;28;1029;-53
2023/03/01 05:05:32;;;;;;;;;;;;;;;8.46;89.48;95537.06;5037263;28;1025;-53
2023/03/01 05:07:59;;;;;;;;;;;;;;;8.45;89.77;95534.53;5037197;28;1210;-53
2023/03/01 05:10:26;;;;;;;;;;;;;;;8.44;90.07;95538.16;5037060;28;1981;-53
2023/03/01 05:12:52;;;;;;;;;;;;;;;8.51;89.47;95534.78;5036969;28;1104;-53
2023/03/01 05:15:18;;;;;;;;;;;;;;;8.40;88.91;95533.09;5036921;28;1042;-53
2023/03/01 05:17:46;;;;;;;;;;;;;;;8.27;89.99;95535.16;5037120;28;1049;-53
2023/03/01 05:20:12;;;;;;;;;;;;;;;8.23;90.14;95535.56;5037042;28;1033;-53
2023/03/01 05:22:38;;;;;;;;;;;;;;;8.20;90.72;95542.03;5036939;28;1058;-53
2023/03/01 05:25:04;;;;;;;;;;;;;;;8.26;90.83;95545.97;5036792;28;1115;-53
2023/03/01 05:27:31;;;;;;;;;;;;;;;8.32;90.17;95546.22;5036794;28;1048;-53
2023/03/01 05:29:57;;;;;;;;;;;;;;;8.35;89.74;95550.47;5036459;28;2005;-52
2023/03/01 05:32:23;;;;;;;;;;;;;;;8.37;89.66;95554.66;5035520;28;1195;-52
2023/03/01 05:34:49;;;;;;;;;;;;;;;8.31;90.51;95557.03;5036592;28;1083;-52
2023/03/01 05:37:15;;;;;;;;;;;;;;;8.41;89.18;95557.91;5036613;28;1092;-52
2023/03/01 05:39:41;;;;;;;;;;;;;;;8.37;89.85;95560.00;5036492;28;1104;-52
2023/03/01 05:42:10;;;;;;;;;;;;;;;8.35;89.73;95567.28;5036485;28;1100;-52
2023/03/01 05:44:36;;;;;;;;;;;;;;;8.39;89.42;95568.69;5036378;28;970;-52
2023/03/01 05:47:02;;;;;;;;;;;;;;;8.44;88.70;95570.13;5036611;28;1040;-52
2023/03/01 05:49:29;;;;;;;;;;;;;;;8.46;88.16;95577.03;5036456;28;1985;-52
2023/03/01 05:51:55;;;;;;;;;;;;;;;8.30;88.92;95577.50;5036300;28;1008;-52
2023/03/01 05:54:22;;;;;;;;;;;;;;;8.29;89.95;95578.50;5036307;28;1038;-52
2023/03/01 05:56:48;;;;;;;;;;;;;;;8.23;91.15;95588.84;5036211;28;1128;-52
2023/03/01 05:59:16;;;;;;;;;;;;;;;8.28;89.92;95587.47;5036347;28;974;-52
2023/03/01 06:01:42;;;;;;;;;;;;;;;8.40;89.27;95593.50;5036280;28;1009;-52
2023/03/01 06:04:08;;;;;;;;;;;;;;;8.43;89.02;95600.44;5036174;28;1014;-53
2023/03/01 06:06:37;;;;;;;;;;;;;;;8.32;89.25;95599.53;5036091;28;1040;-51
2023/03/01 06:09:03;;;;;;;;;;;;;;;8.33;89.37;95595.88;5035839;28;1985;-52
2023/03/01 06:11:29;;;;;;;;;;;;;;;8.38;89.58;95596.34;5034710;28;1065;-52
2023/03/01 06:13:55;;;;;;;;;;;;;;;8.39;89.16;95602.50;5035605;28;1163;-53
2023/03/01 06:16:21;;;;;;;;;;;;;;;8.29;88.76;95609.59;5035722;28;1034;-52
2023/03/01 06:18:47;;;;;;;;;;;;;;;8.21;90.06;95610.28;5035942;28;1017;-53
2023/03/01 06:21:13;;;;;;;;;;;;;;;8.15;90.05;95605.50;5035714;28;1038;-52
2023/03/01 06:23:39;;;;;;;;;;;;;;;8.24;89.25;95607.34;5035647;28;925;-52
2023/03/01 06:26:08;;;;;;;;;;;;;;;8.27;89.62;95612.44;5035653;28;1033;-52
2023/03/01 06:28:35;;;;;;;;;;;;;;;8.14;90.03;95617.16;5035465;28;1906;-52
2023/03/01 06:31:01;;;;;;;;;;;;;;;8.14;89.14;95612.66;5035289;28;1086;-53
2023/03/01 06:33:27;;;;;;;;;;;;;;;8.08;88.96;95617.66;5035745;28;974;-53
2023/03/01 06:35:56;;;;;;;;;;;;;;;8.00;89.74;95611.19;5035476;28;1033;-52
2023/03/01 06:38:23;;;;;;;;;;;;;;;7.92;89.94;95620.84;5035609;28;1049;-52
2023/03/01 06:40:54;;;;;;;;;;;;;;;7.90;90.79;95623.63;5035263;28;1109;-52
2023/03/01 06:43:20;;;;;;;;;;;;;;;7.96;90.04;95622.25;5035254;28;1043;-52
2023/03/01 06:45:46;;;;;;;;;;;;;;;8.07;89.59;95622.16;5035418;28;1029;-52
2023/03/01 06:48:12;;;;;;;;;;;;;;;8.04;90.22;95622.41;5035196;28;1050;-53
2023/03/01 06:50:38;;;;;;;;;;;;;;;7.96;90.57;95622.25;5035248;28;1967;-53
2023/03/01 06:53:05;;;;;;;;;;;;;;;8.04;89.26;95621.56;5035228;28;1049;-53
2023/03/01 06:55:31;;;;;;;;;;;;;;;8.02;89.14;95619.91;5035054;28;1036;-52
2023/03/01 06:58:00;;;;;;;;;;;;;;;7.96;90.12;95617.75;5035256;28;978;-52
2023/03/01 07:00:27;;;;;;;;;;;;;;;8.16;88.66;95625.84;5034922;28;1101;-52
2023/03/01 07:02:53;;;;;;;;;;;;;;;8.13;89.20;95618.94;5035086;28;1036;-52
2023/03/01 07:05:19;;;;;;;;;;;;;;;8.07;89.56;95624.81;5034978;28;1045;-52
2023/03/01 07:07:46;;;;;;;;;;;;;;;8.08;88.40;95618.53;5034791;28;1053;-53
2023/03/01 07:10:12;;;;;;;;;;;;;;;8.09;88.92;95616.69;5034656;28;1910;-53
2023/03/01 07:12:38;;;;;;;;;;;;;;;8.06;89.46;95622.28;5034707;28;1564;-53
2023/03/01 07:15:04;;;;;;;;;;;;;;;8.08;89.78;95623.84;5034877;28;963;-53
2023/03/01 07:17:30;;;;;;;;;;;;;;;8.15;88.85;95618.81;5034797;28;1026;-53
2023/03/01 07:19:56;;;;;;;;;;;;;;;8.13;88.97;95618.94;5034731;28;1032;-54
2023/03/01 07:22:23;;;;;;;;;;;;;;;8.11;88.82;95622.72;5034367;28;1041;-54
2023/03/01 07:24:49;;;;;;;;;;;;;;;8.21;88.21;95626.25;5034506;28;1046;-54
2023/03/01 07:27:15;;;;;;;;;;;;;;;8.27;87.36;95623.09;5034702;28;1041;-53
2023/03/01 07:29:41;;;;;;;;;;;;;;;8.30;87.44;95619.28;5034341;28;1914;-53
2023/03/01 07:32:07;;;;;;;;;;;;;;;8.31;87.40;95623.63;5034274;28;1240;-53
2023/03/01 07:34:33;;;;;;;;;;;;;;;8.26;87.74;95616.06;5034465;28;962;-53
2023/03/01 07:36:59;;;;;;;;;;;;;;;8.38;86.39;95620.31;5034307;28;1029;-53
2023/03/01 07:39:25;;;;;;;;;;;;;;;8.43;85.61;95622.59;5034234;28;1204;-53
2023/03/01 07:41:51;;;;;;;;;;;;;;;8.33;86.63;95614.53;5034472;28;993;-53
2023/03/01 07:44:17;;;;;;;;;;;;;;;8.23;87.25;95620.81;5034326;28;1056;-53
2023/03/01 07:46:44;;;;;;;;;;;;;;;8.27;88.36;95620.41;5034165;28;1120;-53
2023/03/01 07:49:10;;;;;;;;;;;;;;;8.46;85.99;95616.13;5033980;28;2005;-53
2023/03/01 07:51:36;;;;;;;;;;;;;;;8.53;85.24;95611.94;5034114;28;1063;-53
2023/03/01 07:54:02;;;;;;;;;;;;;;;8.34;87.39;95613.53;5033983;28;1034;-53
2023/03/01 07:56:28;;;;;;;;;;;;;;;8.27;87.56;95607.09;5034220;28;962;-53
2023/03/01 07:58:54;;;;;;;;;;;;;;;8.31;87.48;95615.63;5033906;28;1093;-53
2023/03/01 08:01:21;;;;;;;;;;;;;;;8.38;86.00;95608.78;5034049;28;1045;-53
2023/03/01 08:03:47;;;;;;;;;;;;;;;8.43;86.97;95601.28;5033971;28;1069;-53
2023/03/01 08:06:14;;;;;;;;;;;;;;;8.51;85.61;95598.75;5033796;28;1074;-53
2023/03/01 08:08:41;;;;;;;;;;;;;;;8.55;84.82;95594.00;5033667;28;1910;-53
2023/03/01 08:11:09;;;;;;;;;;;;;;;8.40;86.21;95602.38;5033715;28;1101;-53
2023/03/01 08:13:35;;;;;;;;;;;;;;;8.45;85.71;95601.13;5033907;28;1005;-53
2023/03/01 08:16:05;;;;;;;;;;;;;;;8.51;86.29;95601.41;5033640;28;1072;-53
2023/03/01 08:18:32;;;;;;;;;;;;;;;8.66;84.40;95604.53;5032929;28;1032;-53
2023/03/01 08:21:05;;;;;;;;;;;;;;;8.69;84.44;95598.94;5033578;28;1106;-53
2023/03/01 08:23:31;;;;;;;;;;;;;;;8.68;85.17;95609.72;5016078;28;1002;-53
2023/03/01 08:26:08;;;;;;;;;;;;;;;8.67;83.64;95608.91;5033563;28;1057;-53
2023/03/01 08:28:34;;;;;;;;;;;;;;;8.63;84.16;95606.63;5033439;28;1894;-53
2023/03/01 08:31:00;;;;;;;;;;;;;;;8.56;84.59;95614.34;5033409;28;1185;-53
2023/03/01 08:33:26;;;;;;;;;;;;;;;8.48;85.97;95609.72;5033313;28;1053;-53
2023/03/01 08:35:52;;;;;;;;;;;;;;;8.60;84.75;95607.75;5015468;28;974;-53
2023/03/01 08:38:18;;;;;;;;;;;;;;;8.74;84.56;95604.69;5033372;28;919;-53
2023/03/01 08:40:44;;;;;;;;;;;;;;;8.74;84.17;95602.00;5033582;28;962;-53
2023/03/01 08:43:10;;;;;;;;;;;;;;;8.85;83.46;95600.22;5033531;28;996;-53
2023/03/01 08:45:36;;;;;;;;;;;;;;;8.68;84.28;95602.56;5033414;28;1056;-53
2023/03/01 08:48:02;;;;;;;;;;;;;;;8.65;85.82;95610.88;5033394;28;965;-53
2023/03/01 08:50:29;;;;;;;;;;;;;;;8.81;84.98;95604.13;5033174;28;1977;-54
2023/03/01 08:52:55;;;;;;;;;;;;;;;9.01;83.69;95611.19;5033261;28;1093;-53
2023/03/01 08:55:21;;;;;;;;;;;;;;;9.07;85.56;95604.41;5033424;28;1030;-53
2023/03/01 08:57:47;;;;;;;;;;;;;;;9.07;84.18;95599.94;5033401;28;1056;-53
2023/03/01 09:00:14;;;;;;;;;;;;;;;9.12;84.19;95599.50;5033311;28;958;-53
2023/03/01 09:02:40;;;;;;;;;;;;;;;9.18;82.60;95599.78;5033269;28;967;-53
2023/03/01 09:05:06;;;;;;;;;;;;;;;8.95;83.14;95601.03;5033136;28;1009;-53
2023/03/01 09:07:33;;;;;;;;;;;;;;;8.94;84.10;95599.38;5015682;28;1050;-53
2023/03/01 09:09:59;;;;;;;;;;;;;;;9.00;84.30;95593.47;5033306;28;1922;-53
2023/03/01 09:12:25;;;;;;;;;;;;;;;9.16;83.07;95592.91;5033248;28;1014;-53
2023/03/01 09:14:51;;;;;;;;;;;;;;;9.30;83.92;95592.47;5033146;28;958;-53
2023/03/01 09:20:39;;;;;;;;;;;;;;;9.46;83.60;95581.19;5033328;28;849;-54
2023/03/01 09:23:05;;;;;;;;;;;;;;;9.57;81.37;95586.38;5033197;28;966;-52
2023/03/01 09:25:31;;;;;;;;;;;;;;;9.64;82.01;95580.47;5032965;28;1097;-52
2023/03/01 09:27:57;;;;;;;;;;;;;;;9.68;82.33;95580.03;5032983;28;1014;-52
2023/03/01 09:30:24;;;;;;;;;;;;;;;9.88;81.88;95582.63;5032739;28;1914;-53
2023/03/01 09:32:50;;;;;;;;;;;;;;;10.01;80.69;95584.97;5033116;28;1044;-53
2023/03/01 09:35:16;;;;;;;;;;;;;;;9.88;81.43;95582.63;5032884;28;1045;-52
2023/03/01 09:37:45;;;;;;;;;;;;;;;9.77;81.23;95583.66;5032966;28;1037;-53
2023/03/01 09:40:16;;;;;;;;;;;;;;;9.56;81.97;95579.38;5032944;28;1045;-53
2023/03/01 09:42:54;;;;;;;;;;;;;;;9.71;83.48;95581.56;5032843;28;975;-53
2023/03/01 09:45:33;;;;;;;;;;;;;;;9.66;80.88;95575.84;5033555;28;1034;-53
2023/03/01 09:48:00;;;;;;;;;;;;;;;9.73;79.91;95576.91;5036535;28;955;-53
2023/03/01 09:50:27;;;;;;;;;;;;;;;9.74;81.03;95575.94;5036337;28;1989;-53
2023/03/01 09:53:01;;;;;;;;;;;;;;;9.88;79.58;95578.13;5036321;28;1026;-54
2023/03/01 09:55:38;;;;;;;;;;;;;;;9.89;78.86;95577.16;5036448;28;962;-54
2023/03/01 09:58:17;;;;;;;;;;;;;;;9.95;80.58;95576.56;5036145;28;1014;-54
2023/03/01 10:00:44;;;;;;;;;;;;;;;9.97;79.85;95571.06;5036266;28;1052;-54
2023/03/01 10:03:20;;;;;;;;;;;;;;;10.00;79.73;95572.59;5036077;28;1045;-55
2023/03/01 10:05:55;;;;;;;;;;;;;;;10.09;77.98;95575.25;5036037;28;975;-55
2023/03/01 10:08:21;;;;;;;;;;;;;;;10.22;77.99;95576.72;5036219;28;1037;-53
2023/03/01 10:10:48;;;;;;;;;;;;;;;10.28;78.20;95568.97;5035987;28;1906;-53
2023/03/01 10:13:14;;;;;;;;;;;;;;;10.27;79.66;95569.09;5036028;28;1037;-54
2023/03/01 10:15:47;;;;;;;;;;;;;;;10.27;78.30;95561.09;5035873;28;1018;-54
2023/03/01 10:18:19;;;;;;;;;;;;;;;10.26;79.42;95560.25;5018353;28;1057;-54
2023/03/01 10:20:48;;;;;;;;;;;;;;;10.39;79.08;95561.75;5035957;28;1017;-54
2023/03/01 10:23:14;;;;;;;;;;;;;;;10.34;78.94;95556.88;5035686;28;1141;-54
2023/03/01 10:25:40;;;;;;;;;;;;;;;10.15;78.89;95557.78;5035844;28;1033;-54
2023/03/01 10:28:15;;;;;;;;;;;;;;;10.31;79.35;95562.50;5035700;28;1079;-54
2023/03/01 10:30:43;;;;;;;;;;;;;;;10.09;78.21;95563.69;5035371;28;1906;-54
2023/03/01 10:33:18;;;;;;;;;;;;;;;10.10;78.92;95562.72;5035529;28;1108;-54
2023/03/01 10:35:44;;;;;;;;;;;;;;;10.15;79.04;95553.28;5035683;28;962;-54
2023/03/01 10:38:13;;;;;;;;;;;;;;;10.11;78.76;95551.03;5035512;28;1030;-53
2023/03/01 10:40:50;;;;;;;;;;;;;;;10.19;77.27;95551.16;5035524;28;966;-54
2023/03/01 10:43:16;;;;;;;;;;;;;;;10.16;78.47;95544.25;5035317;28;989;-54
2023/03/01 10:45:42;;;;;;;;;;;;;;;10.33;77.57;95547.97;5035260;28;1130;-54
2023/03/01 10:48:15;;;;;;;;;;;;;;;10.34;77.79;95540.81;5035243;28;1054;-54
2023/03/01 10:50:45;;;;;;;;;;;;;;;10.43;76.70;95539.91;5035206;28;1984;-54
2023/03/01 10:53:24;;;;;;;;;;;;;;;10.27;78.01;95545.06;5035114;28;1101;-54
2023/03/01 10:56:16;;;;;;;;;;;;;;;10.28;77.61;95541.38;5035093;28;1028;-54
2023/03/01 10:59:02;;;;;;;;;;;;;;;10.27;78.38;95529.84;5032505;28;1837;-54
2023/03/01 11:01:32;;;;;;;;;;;;;;;10.34;78.04;95527.47;5035080;28;993;-54
2023/03/01 11:04:07;;;;;;;;;;;;;;;10.44;77.43;95530.06;5035016;28;1244;-54
2023/03/01 11:06:34;;;;;;;;;;;;;;;10.55;76.39;95532.53;5034879;28;1097;-54
2023/03/01 11:09:18;;;;;;;;;;;;;;;10.59;77.04;95525.88;5034603;28;1918;-54
2023/03/01 11:11:44;;;;;;;;;;;;;;;10.49;77.67;95525.97;5034935;28;981;-54
2023/03/01 11:14:17;;;;;;;;;;;;;;;10.48;77.96;95528.78;5034862;28;1022;-54
2023/03/01 11:16:48;;;;;;;;;;;;;;;10.53;76.89;95513.13;5034717;28;1040;-54
2023/03/01 11:19:19;;;;;;;;;;;;;;;10.71;77.39;95505.09;5034526;28;1053;-54
2023/03/01 11:21:51;;;;;;;;;;;;;;;10.77;75.78;95506.31;5034817;28;1083;-54
2023/03/01 11:24:18;;;;;;;;;;;;;;;10.90;76.27;95501.41;5034532;28;1062;-54
2023/03/01 11:26:47;;;;;;;;;;;;;;;11.01;75.50;95503.84;5034558;28;1149;-54
2023/03/01 11:29:35;;;;;;;;;;;;;;;11.06;75.88;95493.53;5034419;28;1902;-54
2023/03/01 11:32:05;;;;;;;;;;;;;;;11.17;73.64;95492.41;5034281;28;1951;-54
2023/03/01 11:34:43;;;;;;;;;;;;;;;11.27;73.75;95495.03;5034297;28;1046;-54
2023/03/01 11:37:14;;;;;;;;;;;;;;;11.20;73.84;95492.13;5034402;28;1040;-54
2023/03/01 11:39:45;;;;;;;;;;;;;;;10.96;75.66;95483.91;5034277;28;1005;-54
2023/03/01 11:42:24;;;;;;;;;;;;;;;10.84;76.64;95483.31;5034193;28;1066;-54
2023/03/01 11:44:53;;;;;;;;;;;;;;;10.99;76.50;95480.94;5034561;28;1326;-54
2023/03/01 11:47:37;;;;;;;;;;;;;;;11.10;75.54;95473.47;5034107;28;1121;-54
2023/03/01 11:50:03;;;;;;;;;;;;;;;11.08;76.42;95480.00;5033987;28;1910;-54
2023/03/01 11:52:32;;;;;;;;;;;;;;;11.25;75.61;95473.75;5033911;28;1097;-54
2023/03/01 11:55:04;;;;;;;;;;;;;;;11.31;76.03;95470.44;5034127;28;997;-54
2023/03/01 11:57:36;;;;;;;;;;;;;;;11.29;75.96;95475.13;5034025;28;1002;-54
2023/03/01 12:00:21;;;;;;;;;;;;;;;11.31;73.43;95469.59;5033436;28;1061;-54
2023/03/01 12:02:53;;;;;;;;;;;;;;;11.26;73.77;95478.09;5033240;28;1322;-54
2023/03/01 12:05:46;;;;;;;;;;;;;;;11.39;71.75;95475.00;5032706;28;1101;-54
2023/03/01 12:08:15;;;;;;;;;;;;;;;11.24;72.95;95474.75;5030618;28;1285;-54
2023/03/01 12:10:55;;;;;;;;;;;;;;;11.15;73.13;95478.34;5032232;28;2005;-54
2023/03/01 12:13:27;;;;;;;;;;;;;;;11.26;72.43;95478.09;5034093;28;1038;-54
2023/03/01 12:16:20;;;;;;;;;;;;;;;11.30;73.74;95479.47;5033845;28;1041;-54
2023/03/01 12:18:55;;;;;;;;;;;;;;;11.19;73.49;95482.38;5033767;28;982;-54
2023/03/01 12:21:24;;;;;;;;;;;;;;;11.11;72.73;95479.66;5016102;28;1026;-54
2023/03/01 12:24:20;;;;;;;;;;;;;;;11.08;72.85;95480.00;5033517;28;966;-54
2023/03/01 12:26:55;;;;;;;;;;;;;;;11.13;73.05;95478.53;4997097;28;1163;-54
2023/03/01 12:29:43;;;;;;;;;;;;;;;11.03;74.79;95475.09;5033416;28;1979;-54
2023/03/01 12:32:09;;;;;;;;;;;;;;;10.90;74.30;95480.00;5033212;28;1086;-54
2023/03/01 12:34:54;;;;;;;;;;;;;;;11.02;74.70;95483.28;5033656;28;958;-54
2023/03/01 12:37:35;;;;;;;;;;;;;;;11.05;74.18;95481.13;5033309;28;1109;-54
2023/03/01 12:40:20;;;;;;;;;;;;;;;11.05;75.50;95470.44;5033402;28;1069;-54
2023/03/01 12:42:51;;;;;;;;;;;;;;;11.06;73.73;95469.44;5033354;28;1030;-54
2023/03/01 12:45:36;;;;;;;;;;;;;;;10.99;73.23;95467.56;5033508;28;1127;-54
2023/03/01 12:48:02;;;;;;;;;;;;;;;11.05;73.50;95466.91;5033460;28;1069;-54
2023/03/01 12:50:42;;;;;;;;;;;;;;;11.11;74.69;95464.44;5033280;28;1992;-54
2023/03/01 12:53:37;;;;;;;;;;;;;;;11.11;75.29;95466.28;5033212;28;1128;-54
2023/03/01 12:56:09;;;;;;;;;;;;;;;11.14;74.64;95458.78;5024496;28;1307;-54
2023/03/01 12:58:35;;;;;;;;;;;;;;;11.18;73.71;95453.13;5033334;28;1018;-54
2023/03/01 13:01:04;;;;;;;;;;;;;;;11.07;74.07;95446.19;5033316;28;1077;-54
2023/03/01 13:03:40;;;;;;;;;;;;;;;11.11;72.81;95453.75;5033196;28;1133;-54
2023/03/01 13:06:24;;;;;;;;;;;;;;;11.07;72.85;95447.03;5033314;28;1036;-54
2023/03/01 13:09:00;;;;;;;;;;;;;;;11.24;72.23;95447.97;5033252;28;1999;-54
2023/03/01 13:11:26;;;;;;;;;;;;;;;11.27;72.79;95442.31;5033154;28;1042;-54
2023/03/01 13:14:12;;;;;;;;;;;;;;;11.27;72.78;95442.31;5033141;28;1064;-55
2023/03/01 13:16:39;;;;;;;;;;;;;;;11.36;72.82;95440.50;5033005;28;1140;-52
2023/03/01 13:19:06;;;;;;;;;;;;;;;11.43;72.36;95446.91;5033201;28;1056;-54
2023/03/01 13:21:32;;;;;;;;;;;;;;;11.39;71.31;95447.41;5035579;28;1066;-55
2023/03/01 13:23:58;;;;;;;;;;;;;;;11.29;72.59;95447.53;5036832;28;955;-55